sensor_id;sensor_type;location;lat;lon;timestamp;pressure;altitude;pressure_sealevel;temperature;humidity
75401;BME280;63974;47.538;18.972;2023-05-02T00:00:38;100152.50;;;12.48;70.38
75401;BME280;63974;47.538;18.972;2023-05-02T00:03:41;100153.63;;;12.39;70.66
75401;BME280;63974;47.538;18.972;2023-05-02T00:06:45;100151.72;;;12.33;70.96
75401;BME280;63974;47.538;18.972;2023-05-02T00:09:48;100140.53;;;12.18;71.31
75401;BME280;63974;47.538;18.972;2023-05-02T00:12:51;100132.28;;;12.14;71.13
75401;BME280;63974;47.538;18.972;2023-05-02T00:15:53;100139.09;;;12.15;71.41
75401;BME280;63974;47.538;18.972;2023-05-02T00:18:56;100132.66;;;12.11;71.54
75401;BME280;63974;47.538;18.972;2023-05-02T00:21:59;100129.50;;;12.16;70.92
75401;BME280;63974;47.538;18.972;2023-05-02T00:25:02;100125.38;;;12.07;71.30
75401;BME280;63974;47.538;18.972;2023-05-02T00:28:05;100125.97;;;11.88;72.15
75401;BME280;63974;47.538;18.972;2023-05-02T00:31:12;100126.22;;;11.93;72.13
75401;BME280;63974;47.538;18.972;2023-05-02T00:34:14;100126.59;;;11.90;71.96
75401;BME280;63974;47.538;18.972;2023-05-02T00:37:17;100124.00;;;11.90;72.05
75401;BME280;63974;47.538;18.972;2023-05-02T00:40:20;100124.59;;;11.92;71.45
75401;BME280;63974;47.538;18.972;2023-05-02T00:43:24;100117.63;;;11.92;71.80
75401;BME280;63974;47.538;18.972;2023-05-02T00:46:27;100120.22;;;11.78;72.53
75401;BME280;63974;47.538;18.972;2023-05-02T00:49:31;100123.28;;;11.81;72.29
75401;BME280;63974;47.538;18.972;2023-05-02T00:52:34;100115.66;;;11.80;72.42
75401;BME280;63974;47.538;18.972;2023-05-02T00:55:37;100120.47;;;11.83;72.26
75401;BME280;63974;47.538;18.972;2023-05-02T00:58:40;100118.16;;;11.73;72.72
75401;BME280;63974;47.538;18.972;2023-05-02T01:05:16;100121.94;;;11.71;73.17
75401;BME280;63974;47.538;18.972;2023-05-02T01:08:35;100113.94;;;11.72;72.86
75401;BME280;63974;47.538;18.972;2023-05-02T01:11:52;100116.00;;;11.62;73.43
75401;BME280;63974;47.538;18.972;2023-05-02T01:15:01;100104.38;;;11.58;73.44
75401;BME280;63974;47.538;18.972;2023-05-02T01:18:12;100112.88;;;11.67;73.31
75401;BME280;63974;47.538;18.972;2023-05-02T01:21:16;100116.72;;;11.71;72.90
75401;BME280;63974;47.538;18.972;2023-05-02T01:24:24;100111.88;;;11.68;72.65
75401;BME280;63974;47.538;18.972;2023-05-02T01:30:58;100110.97;;;11.75;72.52
75401;BME280;63974;47.538;18.972;2023-05-02T01:34:03;100105.88;;;11.67;72.60
75401;BME280;63974;47.538;18.972;2023-05-02T01:37:07;100104.38;;;11.58;73.32
75401;BME280;63974;47.538;18.972;2023-05-02T01:40:19;100100.78;;;11.59;72.91
75401;BME280;63974;47.538;18.972;2023-05-02T01:43:22;100100.56;;;11.61;73.39
75401;BME280;63974;47.538;18.972;2023-05-02T01:46:30;100101.56;;;11.60;73.57
75401;BME280;63974;47.538;18.972;2023-05-02T01:49:35;100101.16;;;11.56;73.66
75401;BME280;63974;47.538;18.972;2023-05-02T01:52:38;100098.31;;;11.43;74.25
75401;BME280;63974;47.538;18.972;2023-05-02T01:55:43;100099.38;;;11.49;73.94
75401;BME280;63974;47.538;18.972;2023-05-02T01:58:49;100101.81;;;11.50;74.00
75401;BME280;63974;47.538;18.972;2023-05-02T02:01:53;100098.94;;;11.45;73.81
75401;BME280;63974;47.538;18.972;2023-05-02T02:04:58;100092.47;;;11.41;74.31
75401;BME280;63974;47.538;18.972;2023-05-02T02:08:01;100092.22;;;11.36;74.35
75401;BME280;63974;47.538;18.972;2023-05-02T02:11:08;100088.00;;;11.35;74.52
75401;BME280;63974;47.538;18.972;2023-05-02T02:14:19;100099.91;;;11.30;74.58
75401;BME280;63974;47.538;18.972;2023-05-02T02:17:34;100086.09;;;11.29;74.32
75401;BME280;63974;47.538;18.972;2023-05-02T02:20:42;100088.53;;;11.31;74.29
75401;BME280;63974;47.538;18.972;2023-05-02T02:23:47;100084.16;;;11.31;73.84
75401;BME280;63974;47.538;18.972;2023-05-02T02:26:52;100085.13;;;11.30;73.93
75401;BME280;63974;47.538;18.972;2023-05-02T02:29:55;100080.03;;;11.22;74.37
75401;BME280;63974;47.538;18.972;2023-05-02T02:32:58;100085.22;;;11.22;74.45
75401;BME280;63974;47.538;18.972;2023-05-02T02:36:27;100079.03;;;11.23;74.86
75401;BME280;63974;47.538;18.972;2023-05-02T02:46:25;100081.44;;;11.25;74.70
75401;BME280;63974;47.538;18.972;2023-05-02T02:53:19;100082.59;;;11.08;75.43
75401;BME280;63974;47.538;18.972;2023-05-02T02:56:29;100077.84;;;11.11;75.27
75401;BME280;63974;47.538;18.972;2023-05-02T02:59:42;100086.09;;;11.15;74.96
75401;BME280;63974;47.538;18.972;2023-05-02T03:02:49;100081.69;;;11.01;75.71
75401;BME280;63974;47.538;18.972;2023-05-02T03:05:55;100084.97;;;10.95;75.80
75401;BME280;63974;47.538;18.972;2023-05-02T03:08:59;100085.91;;;11.16;74.85
75401;BME280;63974;47.538;18.972;2023-05-02T03:12:04;100081.00;;;11.21;74.43
75401;BME280;63974;47.538;18.972;2023-05-02T03:18:39;100087.53;;;11.17;74.30
75401;BME280;63974;47.538;18.972;2023-05-02T03:21:43;100086.72;;;11.17;74.17
75401;BME280;63974;47.538;18.972;2023-05-02T03:24:51;100094.22;;;11.12;74.56
75401;BME280;63974;47.538;18.972;2023-05-02T03:27:56;100101.59;;;11.08;74.71
75401;BME280;63974;47.538;18.972;2023-05-02T03:30:59;100104.31;;;11.15;74.76
75401;BME280;63974;47.538;18.972;2023-05-02T03:34:03;100094.53;;;11.17;74.49
75401;BME280;63974;47.538;18.972;2023-05-02T03:37:06;100100.63;;;11.09;74.56
75401;BME280;63974;47.538;18.972;2023-05-02T03:40:09;100102.28;;;11.02;74.67
75401;BME280;63974;47.538;18.972;2023-05-02T03:43:14;100103.69;;;10.91;74.95
75401;BME280;63974;47.538;18.972;2023-05-02T03:46:17;100103.22;;;10.87;75.33
75401;BME280;63974;47.538;18.972;2023-05-02T03:49:19;100100.97;;;10.84;75.29
75401;BME280;63974;47.538;18.972;2023-05-02T03:52:26;100099.03;;;10.86;74.88
75401;BME280;63974;47.538;18.972;2023-05-02T03:55:30;100101.44;;;10.88;75.14
75401;BME280;63974;47.538;18.972;2023-05-02T03:58:34;100104.56;;;10.83;75.34
75401;BME280;63974;47.538;18.972;2023-05-02T04:01:40;100111.69;;;10.89;74.71
75401;BME280;63974;47.538;18.972;2023-05-02T04:04:44;100110.84;;;10.89;74.45
75401;BME280;63974;47.538;18.972;2023-05-02T04:07:50;100115.47;;;10.79;75.05
75401;BME280;63974;47.538;18.972;2023-05-02T04:10:53;100108.41;;;10.73;75.38
75401;BME280;63974;47.538;18.972;2023-05-02T04:13:56;100112.09;;;10.78;75.05
75401;BME280;63974;47.538;18.972;2023-05-02T04:16:58;100125.28;;;10.91;74.60
75401;BME280;63974;47.538;18.972;2023-05-02T04:20:10;100120.47;;;11.02;73.79
75401;BME280;63974;47.538;18.972;2023-05-02T04:23:17;100123.47;;;10.92;74.54
75401;BME280;63974;47.538;18.972;2023-05-02T04:26:22;100129.50;;;10.92;74.39
75401;BME280;63974;47.538;18.972;2023-05-02T04:29:32;100128.72;;;11.06;74.07
75401;BME280;63974;47.538;18.972;2023-05-02T04:32:36;100134.72;;;11.06;74.04
75401;BME280;63974;47.538;18.972;2023-05-02T04:35:40;100125.75;;;11.31;72.86
75401;BME280;63974;47.538;18.972;2023-05-02T04:38:46;100141.53;;;11.44;72.65
75401;BME280;63974;47.538;18.972;2023-05-02T04:41:51;100136.28;;;11.81;71.32
75401;BME280;63974;47.538;18.972;2023-05-02T04:44:56;100143.53;;;12.15;70.70
75401;BME280;63974;47.538;18.972;2023-05-02T04:47:59;100139.06;;;12.30;70.12
75401;BME280;63974;47.538;18.972;2023-05-02T04:51:02;100144.28;;;12.65;68.96
75401;BME280;63974;47.538;18.972;2023-05-02T04:54:05;100144.28;;;12.86;69.04
75401;BME280;63974;47.538;18.972;2023-05-02T04:57:08;100146.13;;;13.13;68.15
75401;BME280;63974;47.538;18.972;2023-05-02T05:00:17;100141.31;;;13.38;67.68
75401;BME280;63974;47.538;18.972;2023-05-02T05:03:20;100155.00;;;13.73;67.65
75401;BME280;63974;47.538;18.972;2023-05-02T05:09:57;100151.69;;;14.33;65.53
75401;BME280;63974;47.538;18.972;2023-05-02T05:13:03;100153.16;;;14.48;64.45
75401;BME280;63974;47.538;18.972;2023-05-02T05:16:08;100157.41;;;14.62;64.02
75401;BME280;63974;47.538;18.972;2023-05-02T05:19:11;100145.38;;;14.81;62.37
75401;BME280;63974;47.538;18.972;2023-05-02T05:22:14;100147.22;;;15.06;61.64
75401;BME280;63974;47.538;18.972;2023-05-02T05:25:17;100146.03;;;15.28;59.18
75401;BME280;63974;47.538;18.972;2023-05-02T05:28:22;100137.78;;;15.38;59.75
75401;BME280;63974;47.538;18.972;2023-05-02T05:31:25;100145.44;;;15.46;58.79
75401;BME280;63974;47.538;18.972;2023-05-02T05:34:31;100152.63;;;15.57;59.02
75401;BME280;63974;47.538;18.972;2023-05-02T05:37:35;100153.47;;;15.44;58.41
75401;BME280;63974;47.538;18.972;2023-05-02T05:40:43;100146.03;;;15.48;58.50
75401;BME280;63974;47.538;18.972;2023-05-02T05:43:47;100152.63;;;15.70;56.96
75401;BME280;63974;47.538;18.972;2023-05-02T05:46:50;100149.00;;;15.71;59.02
75401;BME280;63974;47.538;18.972;2023-05-02T05:49:55;100150.97;;;15.75;56.99
75401;BME280;63974;47.538;18.972;2023-05-02T05:53:02;100159.25;;;15.72;56.78
75401;BME280;63974;47.538;18.972;2023-05-02T05:56:09;100154.25;;;15.64;56.84
75401;BME280;63974;47.538;18.972;2023-05-02T05:59:15;100146.97;;;15.73;57.00
75401;BME280;63974;47.538;18.972;2023-05-02T06:02:18;100156.22;;;15.88;57.81
75401;BME280;63974;47.538;18.972;2023-05-02T06:05:21;100147.34;;;15.89;56.57
75401;BME280;63974;47.538;18.972;2023-05-02T06:08:25;100154.16;;;15.96;55.66
75401;BME280;63974;47.538;18.972;2023-05-02T06:11:29;100150.09;;;16.07;55.08
75401;BME280;63974;47.538;18.972;2023-05-02T06:14:33;100146.84;;;16.18;54.31
75401;BME280;63974;47.538;18.972;2023-05-02T06:17:36;100156.13;;;16.14;54.54
75401;BME280;63974;47.538;18.972;2023-05-02T06:20:39;100154.69;;;16.18;55.77
75401;BME280;63974;47.538;18.972;2023-05-02T06:23:42;100161.88;;;16.42;54.85
75401;BME280;63974;47.538;18.972;2023-05-02T06:26:45;100151.97;;;16.44;54.45
75401;BME280;63974;47.538;18.972;2023-05-02T06:29:51;100167.25;;;16.53;54.27
75401;BME280;63974;47.538;18.972;2023-05-02T06:32:54;100167.13;;;16.79;52.94
75401;BME280;63974;47.538;18.972;2023-05-02T06:35:57;100168.03;;;16.91;52.78
75401;BME280;63974;47.538;18.972;2023-05-02T06:39:03;100160.28;;;17.03;52.87
75401;BME280;63974;47.538;18.972;2023-05-02T06:42:06;100166.44;;;17.15;53.17
75401;BME280;63974;47.538;18.972;2023-05-02T06:45:10;100166.63;;;17.44;52.42
75401;BME280;63974;47.538;18.972;2023-05-02T06:48:13;100169.75;;;17.77;52.71
75401;BME280;63974;47.538;18.972;2023-05-02T06:51:16;100177.50;;;17.90;51.24
75401;BME280;63974;47.538;18.972;2023-05-02T06:54:21;100180.78;;;18.21;50.23
75401;BME280;63974;47.538;18.972;2023-05-02T06:57:24;100162.94;;;18.23;50.84
75401;BME280;63974;47.538;18.972;2023-05-02T07:00:27;100176.25;;;18.28;48.26
75401;BME280;63974;47.538;18.972;2023-05-02T07:03:29;100172.44;;;18.24;49.05
75401;BME280;63974;47.538;18.972;2023-05-02T07:06:33;100172.00;;;18.45;49.53
75401;BME280;63974;47.538;18.972;2023-05-02T07:09:36;100172.28;;;18.55;49.19
75401;BME280;63974;47.538;18.972;2023-05-02T07:12:38;100164.03;;;18.81;49.34
75401;BME280;63974;47.538;18.972;2023-05-02T07:15:42;100162.53;;;18.85;48.10
75401;BME280;63974;47.538;18.972;2023-05-02T07:18:45;100169.09;;;19.06;46.67
75401;BME280;63974;47.538;18.972;2023-05-02T07:21:49;100163.81;;;19.24;46.56
75401;BME280;63974;47.538;18.972;2023-05-02T07:25:00;100176.19;;;19.35;45.37
75401;BME280;63974;47.538;18.972;2023-05-02T07:28:03;100161.63;;;19.44;45.72
75401;BME280;63974;47.538;18.972;2023-05-02T07:31:06;100172.28;;;19.60;45.69
75401;BME280;63974;47.538;18.972;2023-05-02T07:34:09;100176.41;;;19.79;44.70
75401;BME280;63974;47.538;18.972;2023-05-02T07:37:12;100180.84;;;19.79;45.52
75401;BME280;63974;47.538;18.972;2023-05-02T07:40:15;100185.53;;;20.00;46.38
75401;BME280;63974;47.538;18.972;2023-05-02T07:43:19;100185.72;;;20.33;44.12
75401;BME280;63974;47.538;18.972;2023-05-02T07:46:22;100187.19;;;20.40;44.10
75401;BME280;63974;47.538;18.972;2023-05-02T07:49:25;100180.69;;;20.31;43.56
75401;BME280;63974;47.538;18.972;2023-05-02T07:52:29;100189.28;;;20.54;43.67
75401;BME280;63974;47.538;18.972;2023-05-02T07:55:32;100193.09;;;20.58;43.33
75401;BME280;63974;47.538;18.972;2023-05-02T07:58:35;100187.19;;;20.40;43.27
75401;BME280;63974;47.538;18.972;2023-05-02T08:01:40;100179.78;;;20.81;43.20
75401;BME280;63974;47.538;18.972;2023-05-02T08:04:43;100179.47;;;20.78;42.73
75401;BME280;63974;47.538;18.972;2023-05-02T08:07:46;100185.19;;;20.86;42.89
75401;BME280;63974;47.538;18.972;2023-05-02T08:10:49;100180.47;;;21.05;41.43
75401;BME280;63974;47.538;18.972;2023-05-02T08:13:53;100190.00;;;21.06;42.97
75401;BME280;63974;47.538;18.972;2023-05-02T08:16:57;100186.56;;;21.05;42.66
75401;BME280;63974;47.538;18.972;2023-05-02T08:20:00;100191.22;;;21.15;41.69
75401;BME280;63974;47.538;18.972;2023-05-02T08:23:03;100189.75;;;21.40;42.19
75401;BME280;63974;47.538;18.972;2023-05-02T08:26:06;100187.44;;;21.44;42.08
75401;BME280;63974;47.538;18.972;2023-05-02T08:29:11;100186.66;;;21.43;41.85
75401;BME280;63974;47.538;18.972;2023-05-02T08:32:14;100188.50;;;21.26;42.19
75401;BME280;63974;47.538;18.972;2023-05-02T08:35:17;100189.47;;;21.37;41.93
75401;BME280;63974;47.538;18.972;2023-05-02T08:38:20;100192.81;;;21.49;42.81
75401;BME280;63974;47.538;18.972;2023-05-02T08:41:23;100188.88;;;21.02;42.73
75401;BME280;63974;47.538;18.972;2023-05-02T08:44:26;100195.06;;;21.24;42.96
75401;BME280;63974;47.538;18.972;2023-05-02T08:47:30;100191.84;;;21.71;41.53
75401;BME280;63974;47.538;18.972;2023-05-02T08:50:41;100197.47;;;21.75;41.69
75401;BME280;63974;47.538;18.972;2023-05-02T08:53:46;100193.63;;;21.66;42.16
75401;BME280;63974;47.538;18.972;2023-05-02T08:56:52;100193.59;;;22.42;40.19
75401;BME280;63974;47.538;18.972;2023-05-02T08:59:55;100182.28;;;22.99;38.92
75401;BME280;63974;47.538;18.972;2023-05-02T09:06:13;100185.88;;;23.14;37.97
75401;BME280;63974;47.538;18.972;2023-05-02T09:09:17;100182.00;;;23.00;38.88
75401;BME280;63974;47.538;18.972;2023-05-02T09:12:24;100187.81;;;22.71;39.65
75401;BME280;63974;47.538;18.972;2023-05-02T09:15:28;100183.66;;;23.06;38.37
75401;BME280;63974;47.538;18.972;2023-05-02T09:18:44;100176.63;;;23.53;37.54
75401;BME280;63974;47.538;18.972;2023-05-02T09:21:47;100193.75;;;23.36;37.54
75401;BME280;63974;47.538;18.972;2023-05-02T09:24:54;100181.22;;;23.00;38.71
75401;BME280;63974;47.538;18.972;2023-05-02T09:27:57;100193.53;;;22.85;38.97
75401;BME280;63974;47.538;18.972;2023-05-02T09:31:10;100195.59;;;22.56;39.73
75401;BME280;63974;47.538;18.972;2023-05-02T09:34:16;100199.03;;;22.35;40.09
75401;BME280;63974;47.538;18.972;2023-05-02T09:37:34;100194.88;;;22.61;39.75
75401;BME280;63974;47.538;18.972;2023-05-02T09:40:37;100207.06;;;22.88;39.89
75401;BME280;63974;47.538;18.972;2023-05-02T09:43:40;100209.50;;;22.68;39.49
75401;BME280;63974;47.538;18.972;2023-05-02T09:46:51;100212.59;;;22.17;39.98
75401;BME280;63974;47.538;18.972;2023-05-02T09:49:54;100211.19;;;22.53;39.35
75401;BME280;63974;47.538;18.972;2023-05-02T09:53:07;100213.28;;;22.51;40.01
75401;BME280;63974;47.538;18.972;2023-05-02T09:56:11;100208.22;;;22.28;39.46
75401;BME280;63974;47.538;18.972;2023-05-02T09:59:17;100206.97;;;22.78;38.94
75401;BME280;63974;47.538;18.972;2023-05-02T10:02:20;100204.09;;;22.37;40.43
75401;BME280;63974;47.538;18.972;2023-05-02T10:05:25;100215.00;;;22.62;39.39
75401;BME280;63974;47.538;18.972;2023-05-02T10:08:32;100218.41;;;22.84;38.47
75401;BME280;63974;47.538;18.972;2023-05-02T10:11:37;100215.38;;;22.49;38.74
75401;BME280;63974;47.538;18.972;2023-05-02T10:14:50;100213.19;;;22.67;39.22
75401;BME280;63974;47.538;18.972;2023-05-02T10:17:59;100221.06;;;22.62;38.95
75401;BME280;63974;47.538;18.972;2023-05-02T10:21:15;100214.09;;;23.30;38.73
75401;BME280;63974;47.538;18.972;2023-05-02T10:24:20;100219.91;;;23.01;38.75
75401;BME280;63974;47.538;18.972;2023-05-02T10:27:23;100218.06;;;23.28;38.57
75401;BME280;63974;47.538;18.972;2023-05-02T10:30:26;100207.13;;;23.56;37.65
75401;BME280;63974;47.538;18.972;2023-05-02T10:33:30;100217.78;;;23.61;37.21
75401;BME280;63974;47.538;18.972;2023-05-02T10:36:35;100220.06;;;23.47;38.11
75401;BME280;63974;47.538;18.972;2023-05-02T10:39:38;100212.53;;;23.34;38.54
75401;BME280;63974;47.538;18.972;2023-05-02T10:42:44;100211.81;;;23.44;38.71
75401;BME280;63974;47.538;18.972;2023-05-02T10:45:48;100216.31;;;23.12;39.09
75401;BME280;63974;47.538;18.972;2023-05-02T10:49:17;100215.31;;;23.49;38.41
75401;BME280;63974;47.538;18.972;2023-05-02T10:52:27;100215.22;;;23.76;37.99
75401;BME280;63974;47.538;18.972;2023-05-02T10:55:34;100219.66;;;23.29;38.43
75401;BME280;63974;47.538;18.972;2023-05-02T10:58:37;100219.03;;;22.69;39.62
75401;BME280;63974;47.538;18.972;2023-05-02T11:01:40;100224.00;;;22.87;38.79
75401;BME280;63974;47.538;18.972;2023-05-02T11:14:43;100226.00;;;23.28;37.05
75401;BME280;63974;47.538;18.972;2023-05-02T11:17:59;100227.56;;;23.60;37.54
75401;BME280;63974;47.538;18.972;2023-05-02T11:21:28;100222.75;;;23.21;37.40
75401;BME280;63974;47.538;18.972;2023-05-02T11:24:41;100225.94;;;22.70;38.81
75401;BME280;63974;47.538;18.972;2023-05-02T11:27:46;100230.22;;;23.02;38.54
75401;BME280;63974;47.538;18.972;2023-05-02T11:30:50;100227.25;;;22.46;39.63
75401;BME280;63974;47.538;18.972;2023-05-02T11:34:02;100230.81;;;22.57;39.50
75401;BME280;63974;47.538;18.972;2023-05-02T11:37:13;100233.22;;;22.58;39.46
75401;BME280;63974;47.538;18.972;2023-05-02T11:40:17;100235.53;;;23.24;38.42
75401;BME280;63974;47.538;18.972;2023-05-02T11:43:20;100234.72;;;22.76;39.90
75401;BME280;63974;47.538;18.972;2023-05-02T11:46:23;100234.38;;;22.67;39.63
75401;BME280;63974;47.538;18.972;2023-05-02T11:49:26;100235.84;;;22.58;38.84
75401;BME280;63974;47.538;18.972;2023-05-02T11:52:29;100235.81;;;22.80;39.06
75401;BME280;63974;47.538;18.972;2023-05-02T11:55:34;100238.22;;;22.81;39.74
75401;BME280;63974;47.538;18.972;2023-05-02T11:58:37;100237.66;;;22.53;40.26
75401;BME280;63974;47.538;18.972;2023-05-02T12:01:47;100239.75;;;22.51;41.47
75401;BME280;63974;47.538;18.972;2023-05-02T12:04:50;100238.19;;;22.55;41.84
75401;BME280;63974;47.538;18.972;2023-05-02T12:07:53;100231.19;;;22.44;41.72
75401;BME280;63974;47.538;18.972;2023-05-02T12:10:56;100241.78;;;22.65;41.54
75401;BME280;63974;47.538;18.972;2023-05-02T12:13:59;100237.06;;;22.29;41.96
75401;BME280;63974;47.538;18.972;2023-05-02T12:17:04;100234.38;;;22.08;42.63
75401;BME280;63974;47.538;18.972;2023-05-02T12:20:09;100236.13;;;21.81;43.39
75401;BME280;63974;47.538;18.972;2023-05-02T12:23:13;100234.91;;;21.88;43.58
75401;BME280;63974;47.538;18.972;2023-05-02T12:29:19;100236.91;;;21.98;42.70
75401;BME280;63974;47.538;18.972;2023-05-02T12:32:27;100231.56;;;21.76;42.18
75401;BME280;63974;47.538;18.972;2023-05-02T12:35:32;100230.50;;;21.94;43.17
75401;BME280;63974;47.538;18.972;2023-05-02T12:38:36;100241.41;;;21.97;43.74
75401;BME280;63974;47.538;18.972;2023-05-02T12:41:39;100246.31;;;21.72;43.67
75401;BME280;63974;47.538;18.972;2023-05-02T12:44:49;100246.69;;;21.97;43.53
75401;BME280;63974;47.538;18.972;2023-05-02T12:47:53;100244.13;;;22.02;43.60
75401;BME280;63974;47.538;18.972;2023-05-02T12:50:57;100247.25;;;22.59;42.53
75401;BME280;63974;47.538;18.972;2023-05-02T12:54:00;100243.47;;;22.33;42.83
75401;BME280;63974;47.538;18.972;2023-05-02T12:57:03;100242.25;;;22.41;42.06
75401;BME280;63974;47.538;18.972;2023-05-02T13:00:06;100248.97;;;22.48;42.49
75401;BME280;63974;47.538;18.972;2023-05-02T13:03:09;100242.97;;;22.36;43.01
75401;BME280;63974;47.538;18.972;2023-05-02T13:06:12;100246.16;;;22.38;43.16
75401;BME280;63974;47.538;18.972;2023-05-02T13:09:16;100239.53;;;22.36;43.27
75401;BME280;63974;47.538;18.972;2023-05-02T13:12:19;100240.97;;;21.84;43.57
75401;BME280;63974;47.538;18.972;2023-05-02T13:15:22;100236.28;;;21.91;43.65
75401;BME280;63974;47.538;18.972;2023-05-02T13:18:25;100239.31;;;21.99;43.21
75401;BME280;63974;47.538;18.972;2023-05-02T13:21:31;100239.63;;;22.24;42.85
75401;BME280;63974;47.538;18.972;2023-05-02T13:24:34;100239.47;;;21.93;44.14
75401;BME280;63974;47.538;18.972;2023-05-02T13:27:37;100248.13;;;21.88;44.23
75401;BME280;63974;47.538;18.972;2023-05-02T13:30:41;100244.84;;;21.98;44.14
75401;BME280;63974;47.538;18.972;2023-05-02T13:33:44;100239.19;;;21.73;45.08
75401;BME280;63974;47.538;18.972;2023-05-02T13:36:47;100248.06;;;21.50;46.50
75401;BME280;63974;47.538;18.972;2023-05-02T13:39:50;100249.19;;;21.38;46.41
75401;BME280;63974;47.538;18.972;2023-05-02T13:42:53;100254.16;;;21.51;46.52
75401;BME280;63974;47.538;18.972;2023-05-02T13:45:56;100244.28;;;21.30;47.01
75401;BME280;63974;47.538;18.972;2023-05-02T13:48:59;100251.75;;;21.49;47.19
75401;BME280;63974;47.538;18.972;2023-05-02T13:52:02;100244.84;;;21.48;47.01
75401;BME280;63974;47.538;18.972;2023-05-02T13:55:06;100242.00;;;21.66;46.11
75401;BME280;63974;47.538;18.972;2023-05-02T13:58:09;100248.44;;;21.26;47.19
75401;BME280;63974;47.538;18.972;2023-05-02T14:01:12;100239.97;;;20.96;47.25
75401;BME280;63974;47.538;18.972;2023-05-02T14:04:15;100248.03;;;20.89;47.47
75401;BME280;63974;47.538;18.972;2023-05-02T14:07:17;100245.97;;;20.91;47.99
75401;BME280;63974;47.538;18.972;2023-05-02T14:10:20;100237.03;;;21.09;47.49
75401;BME280;63974;47.538;18.972;2023-05-02T14:13:23;100241.44;;;21.03;48.33
75401;BME280;63974;47.538;18.972;2023-05-02T14:16:26;100234.25;;;20.99;48.65
75401;BME280;63974;47.538;18.972;2023-05-02T14:19:30;100233.09;;;20.67;49.12
75401;BME280;63974;47.538;18.972;2023-05-02T14:22:33;100239.28;;;21.00;48.12
75401;BME280;63974;47.538;18.972;2023-05-02T14:25:35;100230.16;;;20.52;49.92
75401;BME280;63974;47.538;18.972;2023-05-02T14:28:38;100232.72;;;20.75;48.73
75401;BME280;63974;47.538;18.972;2023-05-02T14:31:47;100227.13;;;20.60;48.67
75401;BME280;63974;47.538;18.972;2023-05-02T14:34:50;100230.97;;;21.08;48.28
75401;BME280;63974;47.538;18.972;2023-05-02T14:37:53;100231.50;;;20.54;49.53
75401;BME280;63974;47.538;18.972;2023-05-02T14:40:56;100237.53;;;20.39;50.54
75401;BME280;63974;47.538;18.972;2023-05-02T14:43:58;100229.44;;;20.06;50.31
75401;BME280;63974;47.538;18.972;2023-05-02T14:47:01;100226.09;;;20.22;51.01
75401;BME280;63974;47.538;18.972;2023-05-02T14:50:06;100234.84;;;20.11;51.69
75401;BME280;63974;47.538;18.972;2023-05-02T14:53:10;100229.66;;;19.93;51.66
75401;BME280;63974;47.538;18.972;2023-05-02T14:56:13;100241.78;;;19.94;51.61
75401;BME280;63974;47.538;18.972;2023-05-02T14:59:19;100226.47;;;19.79;51.76
75401;BME280;63974;47.538;18.972;2023-05-02T15:02:22;100224.94;;;19.95;51.61
75401;BME280;63974;47.538;18.972;2023-05-02T15:05:25;100228.72;;;19.87;52.09
75401;BME280;63974;47.538;18.972;2023-05-02T15:08:28;100222.34;;;19.83;52.60
75401;BME280;63974;47.538;18.972;2023-05-02T15:11:31;100227.69;;;19.88;52.52
75401;BME280;63974;47.538;18.972;2023-05-02T15:14:34;100222.13;;;19.85;52.59
75401;BME280;63974;47.538;18.972;2023-05-02T15:17:37;100224.84;;;19.55;52.96
75401;BME280;63974;47.538;18.972;2023-05-02T15:20:40;100219.69;;;19.49;53.23
75401;BME280;63974;47.538;18.972;2023-05-02T15:23:44;100228.84;;;19.46;52.72
75401;BME280;63974;47.538;18.972;2023-05-02T15:26:47;100199.38;;;19.26;52.69
75401;BME280;63974;47.538;18.972;2023-05-02T15:29:51;100227.13;;;19.63;52.69
75401;BME280;63974;47.538;18.972;2023-05-02T15:32:54;100224.59;;;19.45;53.23
75401;BME280;63974;47.538;18.972;2023-05-02T15:35:57;100221.16;;;19.45;53.24
75401;BME280;63974;47.538;18.972;2023-05-02T15:39:00;100224.25;;;19.30;54.17
75401;BME280;63974;47.538;18.972;2023-05-02T15:42:04;100220.94;;;19.35;54.47
75401;BME280;63974;47.538;18.972;2023-05-02T15:45:10;100211.19;;;19.35;53.70
75401;BME280;63974;47.538;18.972;2023-05-02T15:48:14;100200.44;;;19.37;54.82
75401;BME280;63974;47.538;18.972;2023-05-02T15:51:17;100213.34;;;19.27;54.78
75401;BME280;63974;47.538;18.972;2023-05-02T15:54:21;100204.50;;;19.10;55.58
75401;BME280;63974;47.538;18.972;2023-05-02T15:57:23;100195.31;;;19.01;55.73
75401;BME280;63974;47.538;18.972;2023-05-02T16:00:27;100187.63;;;18.88;56.08
75401;BME280;63974;47.538;18.972;2023-05-02T16:03:31;100183.03;;;18.83;56.13
75401;BME280;63974;47.538;18.972;2023-05-02T16:06:34;100182.28;;;18.76;55.49
75401;BME280;63974;47.538;18.972;2023-05-02T16:09:39;100182.00;;;18.84;55.09
75401;BME280;63974;47.538;18.972;2023-05-02T16:12:43;100190.53;;;18.68;56.04
75401;BME280;63974;47.538;18.972;2023-05-02T16:15:46;100186.97;;;18.74;55.48
75401;BME280;63974;47.538;18.972;2023-05-02T16:18:49;100186.78;;;18.76;56.08
75401;BME280;63974;47.538;18.972;2023-05-02T16:21:52;100166.22;;;18.55;56.80
75401;BME280;63974;47.538;18.972;2023-05-02T16:24:55;100184.84;;;18.53;57.34
75401;BME280;63974;47.538;18.972;2023-05-02T16:27:58;100189.22;;;18.59;57.38
75401;BME280;63974;47.538;18.972;2023-05-02T16:31:05;100186.19;;;18.44;57.17
75401;BME280;63974;47.538;18.972;2023-05-02T16:34:09;100190.34;;;18.34;57.26